Time;durP1;ratioP1;P1;durP2;ratioP2;P2;SDS_P1;SDS_P2;PMS_P1;PMS_P2;Temp;Humidity;BMP_temperature;BMP_pressure;BME280_temperature;BME280_humidity;BME280_pressure;Samples;Min_cycle;Max_cycle;Signal;HPM_P1;HPM_P2
2023/12/23 00:01:47;;;;;;;3.87;2.73;;;;;;;7.77;53.84;98146.25;5093011;28;20219;-72
2023/12/23 00:04:14;;;;;;;4.70;3.30;;;;;;;7.81;54.04;98150.09;5092973;28;20195;-72
2023/12/23 00:06:41;;;;;;;3.43;3.13;;;;;;;7.83;54.53;98155.97;5093381;28;20546;-72
2023/12/23 00:09:08;;;;;;;4.57;2.90;;;;;;;7.85;55.22;98162.69;5093421;28;20195;-72
2023/12/23 00:11:35;;;;;;;4.27;2.83;;;;;;;7.82;55.40;98159.63;5093338;28;20199;-72
2023/12/23 00:14:01;;;;;;;2.67;2.47;;;;;;;7.54;55.88;98165.25;5092753;28;20252;-72
2023/12/23 00:16:30;;;;;;;3.10;2.90;;;;;;;7.22;56.54;98154.81;5093214;28;20260;-72
2023/12/23 00:18:58;;;;;;;6.13;3.00;;;;;;;7.33;56.29;98156.78;5092762;28;20688;-72
2023/12/23 00:21:25;;;;;;;3.00;2.80;;;;;;;7.33;56.69;98141.75;5092683;28;20256;-73
2023/12/23 00:23:52;;;;;;;3.20;3.00;;;;;;;7.39;57.27;98138.28;5092618;28;20625;-73
2023/12/23 00:26:19;;;;;;;3.70;3.43;;;;;;;7.43;57.42;98139.47;5093032;28;20195;-73
2023/12/23 00:28:45;;;;;;;3.20;3.00;;;;;;;7.48;57.66;98139.66;5093009;27;20207;-73
2023/12/23 00:31:12;;;;;;;4.73;3.47;;;;;;;7.53;57.77;98136.41;5092921;28;20272;-73
2023/12/23 00:33:39;;;;;;;3.83;3.63;;;;;;;7.56;58.12;98115.63;5092845;28;20231;-72
2023/12/23 00:36:07;;;;;;;3.83;3.37;;;;;;;7.57;57.81;98121.75;5092716;28;20225;-73
2023/12/23 00:38:34;;;;;;;5.73;3.90;;;;;;;7.59;58.82;98122.38;5092734;28;20188;-72
2023/12/23 00:41:01;;;;;;;3.67;3.37;;;;;;;7.55;58.91;98129.09;5092334;28;20691;-72
2023/12/23 00:43:27;;;;;;;3.63;3.33;;;;;;;7.50;59.67;98131.53;5092645;28;20219;-71
2023/12/23 00:45:55;;;;;;;4.47;4.03;;;;;;;7.46;59.94;98135.59;5092169;28;20638;-70
2023/12/23 00:48:22;;;;;;;4.00;3.60;;;;;;;7.40;59.73;98128.53;5092665;28;20294;-70
2023/12/23 00:50:48;;;;;;;4.00;3.70;;;;;;;7.41;59.27;98122.22;5091477;28;20896;-70
2023/12/23 00:53:17;;;;;;;8.97;3.83;;;;;;;7.39;59.32;98119.00;5092276;28;20202;-71
2023/12/23 00:55:43;;;;;;;9.07;3.90;;;;;;;7.38;60.12;98117.34;5091980;28;20205;-71
2023/12/23 00:58:10;;;;;;;5.93;4.17;;;;;;;7.32;60.28;98102.34;5092364;28;20191;-71
2023/12/23 01:00:37;;;;;;;5.87;3.87;;;;;;;7.31;59.88;98101.53;5091763;28;20198;-72
2023/12/23 01:03:04;;;;;;;5.37;4.17;;;;;;;7.31;60.34;98090.16;5091740;28;20261;-70
2023/12/23 01:05:31;;;;;;;8.73;3.90;;;;;;;7.31;60.26;98082.25;5091759;28;20241;-70
2023/12/23 01:07:58;;;;;;;7.57;3.77;;;;;;;7.28;59.75;98070.28;5092210;28;20200;-71
2023/12/23 01:10:26;;;;;;;8.13;3.60;;;;;;;7.27;59.98;98065.22;5091707;28;20195;-71
2023/12/23 01:12:53;;;;;;;4.60;3.07;;;;;;;7.23;59.07;98066.66;5091790;28;20233;-72
2023/12/23 01:15:21;;;;;;;3.07;2.80;;;;;;;7.17;59.25;98064.81;5091675;28;20655;-72
2023/12/23 01:17:47;;;;;;;4.17;3.10;;;;;;;7.17;59.40;98067.47;5092301;28;20187;-73
2023/12/23 01:20:14;;;;;;;3.87;3.43;;;;;;;7.16;60.71;98057.94;5091908;28;20252;-73
2023/12/23 01:22:41;;;;;;;10.50;3.43;;;;;;;7.17;61.18;98057.72;5091552;28;20222;-73
2023/12/23 01:25:08;;;;;;;3.10;2.90;;;;;;;7.16;60.76;98071.13;5091901;28;20245;-72
2023/12/23 01:27:37;;;;;;;4.00;3.53;;;;;;;7.07;60.75;98073.19;5091652;28;20731;-72
2023/12/23 01:30:04;;;;;;;3.73;3.53;;;;;;;7.03;61.59;98076.47;5091483;28;20663;-70
2023/12/23 01:32:30;;;;;;;3.97;3.57;;;;;;;6.93;61.52;98065.50;5091586;28;20231;-71
2023/12/23 01:34:57;;;;;;;4.33;3.53;;;;;;;7.00;61.74;98071.59;5091745;28;20187;-71
2023/12/23 01:37:24;;;;;;;4.90;3.80;;;;;;;6.98;61.29;98074.44;5079514;28;20196;-71
2023/12/23 01:39:50;;;;;;;4.03;3.40;;;;;;;7.00;61.75;98061.03;5071528;28;20254;-75
2023/12/23 01:42:17;;;;;;;5.03;3.73;;;;;;;7.00;61.25;98058.38;5071521;28;20226;-72
2023/12/23 01:44:45;;;;;;;6.47;3.83;;;;;;;7.02;61.12;98059.00;5071169;28;20191;-73
2023/12/23 01:47:13;;;;;;;3.33;3.13;;;;;;;7.03;61.40;98060.63;5071585;28;20196;-72
2023/12/23 01:49:42;;;;;;;5.17;3.33;;;;;;;6.97;62.29;98046.44;5071590;28;20250;-74
2023/12/23 01:52:09;;;;;;;5.50;2.93;;;;;;;6.92;61.53;98069.19;5071441;28;20200;-74
2023/12/23 01:54:36;;;;;;;5.23;3.30;;;;;;;6.93;61.73;98057.59;5071529;28;20266;-72
2023/12/23 01:57:03;;;;;;;2.90;2.57;;;;;;;6.86;62.03;98033.06;5071381;28;20199;-72
2023/12/23 01:59:30;;;;;;;5.20;3.20;;;;;;;6.95;61.98;98055.56;5071375;28;20192;-72
2023/12/23 02:01:58;;;;;;;3.43;3.23;;;;;;;6.94;62.83;98051.31;5074136;28;20194;-70
2023/12/23 02:04:25;;;;;;;5.60;3.40;;;;;;;6.93;63.12;98039.13;5075089;28;20660;-70
2023/12/23 02:06:52;;;;;;;4.10;2.87;;;;;;;6.95;62.98;98026.53;5074965;28;20664;-69
2023/12/23 02:09:19;;;;;;;2.70;2.50;;;;;;;6.94;62.73;98022.28;5075534;28;20693;-70
2023/12/23 02:11:56;;;;;;;2.13;2.03;;;;;;;6.96;62.68;98034.25;5074964;28;20233;-71
2023/12/23 02:14:29;;;;;;;2.93;2.73;;;;;;;6.92;63.16;98048.88;5074984;28;20630;-70
2023/12/23 02:16:58;;;;;;;2.23;2.13;;;;;;;6.92;63.03;98064.72;5075168;28;20194;-70
2023/12/23 02:19:25;;;;;;;2.90;2.57;;;;;;;6.96;62.80;98065.09;5075252;28;20200;-70
2023/12/23 02:21:53;;;;;;;3.27;2.97;;;;;;;6.98;62.50;98065.72;5074987;28;20205;-70
2023/12/23 02:24:20;;;;;;;2.97;2.77;;;;;;;6.99;63.08;98076.06;5074679;28;20553;-70
2023/12/23 02:26:51;;;;;;;2.80;2.60;;;;;;;6.95;62.72;98079.31;5074610;28;20663;-70
2023/12/23 02:29:18;;;;;;;3.40;2.87;;;;;;;6.98;62.99;98065.72;5075006;28;20191;-70
2023/12/23 02:31:46;;;;;;;2.77;2.57;;;;;;;6.98;62.79;98053.31;5074633;28;20200;-70
2023/12/23 02:34:14;;;;;;;3.23;3.03;;;;;;;6.98;63.05;98026.13;5074755;28;20667;-70
2023/12/23 02:36:40;;;;;;;4.97;2.77;;;;;;;6.94;63.83;98022.28;5074696;28;20192;-71
2023/12/23 02:39:09;;;;;;;4.33;2.80;;;;;;;6.95;63.73;98021.25;5074751;28;20195;-70
2023/12/23 02:41:35;;;;;;;2.60;2.40;;;;;;;6.83;64.72;98028.19;5074651;28;20199;-71
2023/12/23 02:44:02;;;;;;;5.00;3.17;;;;;;;6.74;64.61;98034.72;5074517;28;20768;-71
2023/12/23 02:46:29;;;;;;;10.27;6.80;;;;;;;6.72;64.01;98021.75;5074577;28;20326;-71
2023/12/23 02:48:55;;;;;;;7.70;5.70;;;;;;;6.57;63.86;98023.00;5074326;28;20664;-71
2023/12/23 02:51:22;;;;;;;6.63;4.80;;;;;;;6.51;64.22;98023.81;5074671;28;20200;-69
2023/12/23 02:53:49;;;;;;;8.73;5.63;;;;;;;6.58;64.34;98008.78;5073972;28;20239;-69
2023/12/23 02:56:17;;;;;;;6.73;5.10;;;;;;;6.54;65.16;98026.88;5074385;28;20253;-71
2023/12/23 02:58:44;;;;;;;4.60;4.20;;;;;;;6.40;65.23;98012.06;5074391;28;20197;-71
2023/12/23 03:01:10;;;;;;;5.43;4.93;;;;;;;6.45;65.03;98003.56;5074205;28;20207;-70
2023/12/23 03:03:37;;;;;;;11.33;7.33;;;;;;;6.53;65.33;98004.13;5073969;28;20231;-69
2023/12/23 03:06:04;;;;;;;7.77;5.60;;;;;;;6.51;66.09;97997.44;5073897;28;20204;-69
2023/12/23 03:08:31;;;;;;;5.43;4.17;;;;;;;6.50;64.94;98011.66;5073865;28;20704;-68
2023/12/23 03:10:57;;;;;;;7.53;5.87;;;;;;;6.51;65.04;97989.53;5074075;28;20257;-69
2023/12/23 03:13:25;;;;;;;4.67;4.23;;;;;;;6.49;65.27;98000.28;5073470;28;20192;-68
2023/12/23 03:15:52;;;;;;;12.37;4.53;;;;;;;6.50;65.45;98001.09;5074016;28;20192;-72
2023/12/23 03:18:19;;;;;;;7.97;6.30;;;;;;;6.56;66.15;98000.25;5074144;28;20201;-70
2023/12/23 03:20:45;;;;;;;6.50;4.10;;;;;;;6.59;65.13;97984.03;5073772;28;20682;-71
2023/12/23 03:23:12;;;;;;;8.60;5.67;;;;;;;6.59;65.38;97999.84;5073753;28;20220;-71
2023/12/23 03:25:39;;;;;;;9.93;6.90;;;;;;;6.60;64.64;97980.38;5073735;28;20272;-71
2023/12/23 03:28:06;;;;;;;15.67;9.20;;;;;;;6.63;66.04;97956.22;5073498;28;20196;-72
2023/12/23 03:30:34;;;;;;;8.93;6.90;;;;;;;6.60;66.75;97959.28;5073973;28;20197;-71
2023/12/23 03:33:01;;;;;;;5.53;4.90;;;;;;;6.29;66.53;97972.34;5073671;28;20229;-71
2023/12/23 03:35:27;;;;;;;5.80;5.30;;;;;;;6.22;67.60;97996.09;5073480;28;20249;-70
2023/12/23 03:37:54;;;;;;;6.30;5.37;;;;;;;6.24;67.89;97964.25;5089967;28;20205;-70
2023/12/23 03:40:21;;;;;;;7.83;6.37;;;;;;;6.21;68.05;97972.56;5093928;28;20226;-69
2023/12/23 03:42:47;;;;;;;8.33;4.60;;;;;;;6.22;68.31;97961.00;5093703;28;20641;-71
2023/12/23 03:45:16;;;;;;;6.10;5.57;;;;;;;6.25;68.62;97977.22;5093800;28;20198;-70
2023/12/23 03:47:45;;;;;;;6.13;5.20;;;;;;;6.19;69.33;97950.84;5093644;28;20197;-70
2023/12/23 03:50:11;;;;;;;5.27;4.70;;;;;;;6.18;69.27;97943.97;5093874;28;20274;-70
2023/12/23 03:52:38;;;;;;;9.03;5.00;;;;;;;6.21;68.56;97946.22;5093630;28;20199;-70
2023/12/23 03:55:05;;;;;;;5.93;5.23;;;;;;;6.18;69.26;97949.25;5093241;28;20192;-70
2023/12/23 03:57:32;;;;;;;6.67;4.70;;;;;;;6.14;69.78;97950.69;5093166;28;20188;-69
2023/12/23 03:59:59;;;;;;;5.60;4.40;;;;;;;6.15;70.12;97954.91;5093636;28;20259;-69
2023/12/23 04:02:25;;;;;;;4.47;4.10;;;;;;;6.13;70.08;97964.88;5092967;28;20233;-72
2023/12/23 04:04:53;;;;;;;6.37;4.53;;;;;;;5.99;69.48;97971.97;5093097;28;20194;-73
2023/12/23 04:07:20;;;;;;;4.80;4.40;;;;;;;6.05;70.29;97959.81;5092937;28;20253;-72
2023/12/23 04:09:47;;;;;;;7.67;6.43;;;;;;;5.98;70.47;97943.19;5093039;28;20662;-72
2023/12/23 04:12:14;;;;;;;19.63;7.47;;;;;;;6.02;70.77;97939.97;5093214;28;20191;-72
2023/12/23 04:14:40;;;;;;;13.13;7.60;;;;;;;6.06;70.48;97937.72;5093190;28;20206;-74
2023/12/23 04:17:07;;;;;;;10.53;6.03;;;;;;;5.94;70.44;97937.53;5092806;28;20662;-72
2023/12/23 04:19:34;;;;;;;10.40;5.50;;;;;;;5.94;70.67;97953.34;5093120;28;20187;-72
2023/12/23 04:22:02;;;;;;;6.67;6.07;;;;;;;5.98;70.37;97948.47;5091802;28;20199;-73
2023/12/23 04:24:29;;;;;;;12.53;6.37;;;;;;;6.02;71.47;97960.22;5091995;28;20271;-71
2023/12/23 04:26:56;;;;;;;14.43;6.47;;;;;;;5.95;71.83;97943.63;5093213;28;20201;-71
2023/12/23 04:29:22;;;;;;;15.67;9.20;;;;;;;5.96;71.84;97950.50;5092920;28;20199;-70
2023/12/23 04:31:49;;;;;;;12.33;9.53;;;;;;;5.90;72.73;97956.56;5092386;28;20252;-71
2023/12/23 04:34:16;;;;;;;12.30;7.57;;;;;;;5.81;72.66;97932.28;5092820;28;20191;-70
2023/12/23 04:36:43;;;;;;;12.77;6.50;;;;;;;5.82;72.62;97935.72;5087211;28;20196;-70
2023/12/23 04:39:11;;;;;;;10.40;6.77;;;;;;;5.82;72.34;97948.88;5072620;28;20196;-71
2023/12/23 04:41:37;;;;;;;16.13;9.40;;;;;;;5.82;72.95;97965.50;5072481;28;20203;-70
2023/12/23 04:44:04;;;;;;;18.27;11.73;;;;;;;5.79;73.62;97950.06;5072204;28;20276;-71
2023/12/23 04:46:31;;;;;;;16.80;10.43;;;;;;;5.81;73.29;97952.53;5072358;28;20201;-71
2023/12/23 04:48:58;;;;;;;15.90;9.73;;;;;;;5.75;72.99;97920.69;5072265;28;20189;-72
2023/12/23 04:51:24;;;;;;;11.30;9.13;;;;;;;5.88;73.10;97937.53;5071964;28;20665;-72
2023/12/23 04:53:51;;;;;;;13.13;9.20;;;;;;;5.92;72.92;97928.22;5071949;28;20196;-72
2023/12/23 04:56:19;;;;;;;15.23;7.97;;;;;;;5.90;73.68;97928.41;5071836;28;20242;-71
2023/12/23 04:58:46;;;;;;;16.20;8.93;;;;;;;5.85;73.65;97948.47;5071776;28;20629;-72
2023/12/23 05:01:13;;;;;;;14.93;8.10;;;;;;;5.65;72.88;97943.19;5072125;28;20643;-71
2023/12/23 05:03:39;;;;;;;11.33;7.77;;;;;;;5.75;73.06;97944.41;5072211;28;20226;-71
2023/12/23 05:06:07;;;;;;;8.47;7.50;;;;;;;5.74;73.78;97942.78;5071746;28;20732;-71
2023/12/23 05:08:34;;;;;;;8.87;7.97;;;;;;;5.72;74.22;97918.47;5076974;28;20194;-70
2023/12/23 05:11:00;;;;;;;9.77;8.00;;;;;;;5.76;74.60;97927.59;5082922;28;20540;-70
2023/12/23 05:13:28;;;;;;;8.00;6.77;;;;;;;5.63;73.39;97943.41;5081300;28;20345;-71
2023/12/23 05:15:55;;;;;;;10.17;6.73;;;;;;;5.57;72.93;97962.63;5080350;28;20252;-70
2023/12/23 05:18:22;;;;;;;10.77;7.43;;;;;;;5.64;73.13;97952.13;5071330;28;20187;-72
2023/12/23 05:20:49;;;;;;;9.50;7.53;;;;;;;5.64;72.85;97958.16;5071547;28;20648;-70
2023/12/23 05:23:16;;;;;;;8.37;5.97;;;;;;;5.62;72.12;97957.59;5071248;28;20224;-70
2023/12/23 05:25:43;;;;;;;11.63;6.93;;;;;;;5.75;72.73;97954.94;5071573;28;20205;-71
2023/12/23 05:28:10;;;;;;;8.50;6.93;;;;;;;5.78;72.79;97944.00;5071050;28;20264;-71
2023/12/23 05:30:38;;;;;;;8.07;6.83;;;;;;;5.62;73.34;97948.84;5080742;28;20568;-71
2023/12/23 05:33:05;;;;;;;10.60;7.03;;;;;;;5.60;73.48;97941.16;5082837;28;20275;-70
2023/12/23 05:35:32;;;;;;;7.33;6.60;;;;;;;5.70;73.20;97944.22;5070627;28;20184;-70
2023/12/23 05:37:59;;;;;;;12.00;8.00;;;;;;;5.68;73.41;97933.06;5070645;28;20669;-71
2023/12/23 05:40:25;;;;;;;9.67;8.07;;;;;;;5.73;73.74;97935.88;5070895;28;20185;-70
2023/12/23 05:42:52;;;;;;;10.90;7.57;;;;;;;5.77;73.49;97937.09;5073636;28;20191;-73
2023/12/23 05:45:19;;;;;;;11.10;7.47;;;;;;;5.68;73.15;97911.97;5080580;28;20733;-69
2023/12/23 05:47:48;;;;;;;15.57;8.37;;;;;;;5.67;73.86;97902.47;5080328;28;20256;-70
2023/12/23 05:50:15;;;;;;;13.43;8.00;;;;;;;5.71;73.54;97908.94;5079288;28;20191;-70
2023/12/23 05:52:43;;;;;;;15.00;9.17;;;;;;;5.63;73.67;97919.69;5080351;28;20196;-73
2023/12/23 05:55:10;;;;;;;10.00;8.80;;;;;;;5.46;73.80;97931.66;5082002;28;20191;-72
2023/12/23 05:57:37;;;;;;;13.03;8.83;;;;;;;5.30;74.63;97934.66;5076629;28;20193;-73
2023/12/23 06:00:05;;;;;;;11.03;8.93;;;;;;;5.22;75.36;97926.97;5079709;28;20726;-71
2023/12/23 06:02:31;;;;;;;19.90;11.17;;;;;;;5.16;74.91;97946.16;5083000;28;20727;-72
2023/12/23 06:04:59;;;;;;;12.97;8.20;;;;;;;5.28;74.78;97959.56;5091341;28;20220;-76
2023/12/23 06:07:26;;;;;;;21.33;10.27;;;;;;;5.39;74.93;97964.22;5091344;28;20244;-72
2023/12/23 06:09:53;;;;;;;23.60;11.97;;;;;;;5.39;74.57;97958.94;5091014;28;20204;-73
2023/12/23 06:12:19;;;;;;;21.50;12.10;;;;;;;5.36;74.46;97965.44;5091419;28;20651;-73
2023/12/23 06:14:46;;;;;;;17.60;10.40;;;;;;;5.40;75.33;97976.41;5091086;28;20225;-71
2023/12/23 06:17:14;;;;;;;15.77;10.87;;;;;;;5.52;76.00;97970.31;5091404;28;20258;-71
2023/12/23 06:19:40;;;;;;;16.00;11.07;;;;;;;5.63;75.49;97993.44;5090711;28;20264;-73
2023/12/23 06:22:08;;;;;;;20.60;12.20;;;;;;;5.70;75.46;97986.34;5090849;28;20674;-71
2023/12/23 06:24:35;;;;;;;17.70;11.97;;;;;;;5.86;75.39;98002.78;5091161;28;20344;-71
2023/12/23 06:27:02;;;;;;;21.73;12.50;;;;;;;5.98;75.50;98007.25;5089816;28;20273;-73
2023/12/23 06:29:30;;;;;;;19.57;13.40;;;;;;;6.07;74.44;98000.75;5077269;28;20675;-74
2023/12/23 06:31:57;;;;;;;25.97;15.60;;;;;;;6.18;74.77;97994.88;5070405;28;20621;-73
2023/12/23 06:34:24;;;;;;;35.60;17.73;;;;;;;6.52;76.88;97983.22;5071245;28;20274;-74
2023/12/23 06:36:50;;;;;;;27.07;15.67;;;;;;;6.64;73.54;97973.66;5077054;28;20275;-70
2023/12/23 06:39:18;;;;;;;27.93;16.07;;;;;;;6.62;71.92;98007.38;5090776;28;20192;-70
2023/12/23 06:41:46;;;;;;;37.27;20.60;;;;;;;6.60;72.76;97990.91;5091038;28;20276;-70
2023/12/23 06:44:13;;;;;;;32.57;18.90;;;;;;;6.69;72.74;97969.38;5090870;28;20387;-70
2023/12/23 06:46:40;;;;;;;34.77;17.30;;;;;;;6.89;71.59;97995.69;5085148;28;20214;-70
2023/12/23 06:49:06;;;;;;;66.83;36.87;;;;;;;6.99;69.87;98012.72;5079810;28;20651;-69
2023/12/23 06:51:33;;;;;;;55.47;28.47;;;;;;;7.05;70.83;98003.97;5083062;28;20289;-71
2023/12/23 06:54:00;;;;;;;57.00;28.00;;;;;;;7.16;69.55;98023.59;5090688;28;20216;-70
2023/12/23 06:56:28;;;;;;;51.67;27.20;;;;;;;7.36;69.94;98032.25;5077288;28;20207;-69
2023/12/23 06:58:54;;;;;;;45.90;23.80;;;;;;;7.74;67.74;98018.00;5076502;28;20621;-69
2023/12/23 07:01:21;;;;;;;28.00;16.87;;;;;;;7.98;66.77;97998.72;5091332;28;20267;-69
2023/12/23 07:03:48;;;;;;;57.13;30.37;;;;;;;8.27;65.07;97987.50;5098265;28;20685;-72
2023/12/23 07:06:14;;;;;;;35.43;19.43;;;;;;;8.80;69.66;97993.03;5114617;28;20246;-72
2023/12/23 07:08:41;;;;;;;24.10;15.67;;;;;;;9.23;65.34;97970.69;5094444;27;20195;-74
2023/12/23 07:11:10;;;;;;;20.10;14.73;;;;;;;9.35;61.36;97982.13;5094208;28;20191;-74
2023/12/23 07:13:38;;;;;;;20.50;14.27;;;;;;;9.19;62.24;98003.94;5094232;28;20218;-71
2023/12/23 07:16:06;;;;;;;30.57;18.10;;;;;;;9.04;61.81;98015.97;5094183;28;20214;-73
2023/12/23 07:18:33;;;;;;;33.30;19.77;;;;;;;9.04;62.38;98000.09;5093386;28;20579;-71
2023/12/23 07:21:00;;;;;;;31.13;17.30;;;;;;;9.04;61.08;98000.09;5092587;28;20682;-72
2023/12/23 07:23:27;;;;;;;31.07;19.47;;;;;;;9.43;61.99;97962.44;5091630;28;20195;-72
2023/12/23 07:25:53;;;;;;;31.33;17.17;;;;;;;9.73;59.67;97958.72;5091276;28;20260;-72
2023/12/23 07:28:20;;;;;;;26.80;15.27;;;;;;;9.81;58.52;97970.88;5091588;28;20205;-73
2023/12/23 07:30:48;;;;;;;29.03;16.17;;;;;;;9.70;59.38;98008.75;5092293;28;20187;-67
2023/12/23 07:33:15;;;;;;;23.83;16.00;;;;;;;9.70;59.21;98012.22;5092339;28;20284;-70
2023/12/23 07:35:42;;;;;;;31.50;16.47;;;;;;;9.69;58.33;97991.25;5093280;28;20548;-70
2023/12/23 07:38:09;;;;;;;26.83;14.43;;;;;;;9.65;57.56;97998.03;5090397;28;20186;-73
2023/12/23 07:40:36;;;;;;;23.87;15.67;;;;;;;9.65;58.11;97993.50;5093292;28;20199;-72
2023/12/23 07:43:03;;;;;;;23.60;16.30;;;;;;;9.71;59.07;97960.00;5092702;28;20195;-72
2023/12/23 07:45:30;;;;;;;27.43;14.93;;;;;;;9.59;59.58;97983.84;5091793;28;20218;-72
2023/12/23 07:47:58;;;;;;;23.10;13.60;;;;;;;9.58;59.87;97962.84;5091738;28;20198;-72
2023/12/23 07:50:25;;;;;;;31.07;15.53;;;;;;;9.65;59.01;97974.19;5093476;28;20264;-72
2023/12/23 07:52:51;;;;;;;42.00;19.37;;;;;;;9.65;59.58;97937.06;5093545;28;20195;-72
2023/12/23 07:55:18;;;;;;;39.33;19.53;;;;;;;9.76;60.52;97958.28;5093051;28;20645;-72
2023/12/23 07:57:45;;;;;;;68.73;34.23;;;;;;;9.88;58.88;97977.66;5093372;28;20200;-72
2023/12/23 08:00:13;;;;;;;75.40;36.90;;;;;;;9.97;58.63;97967.56;5093043;28;20204;-72
2023/12/23 08:02:39;;;;;;;44.37;26.10;;;;;;;9.97;58.42;97991.41;5093301;28;20207;-71
2023/12/23 08:05:07;;;;;;;50.90;26.30;;;;;;;9.95;58.24;98009.38;5093183;28;20219;-72
2023/12/23 08:07:36;;;;;;;46.47;21.93;;;;;;;10.00;58.73;98017.47;5093068;28;20192;-72
2023/12/23 08:10:03;;;;;;;39.03;15.90;;;;;;;10.03;58.02;98043.53;5093174;28;20281;-73
2023/12/23 08:12:29;;;;;;;49.80;21.10;;;;;;;10.11;57.69;97998.97;5089706;28;20187;-72
2023/12/23 08:14:56;;;;;;;64.83;29.23;;;;;;;10.20;58.46;98018.81;5091272;28;20601;-72
2023/12/23 08:17:23;;;;;;;56.00;24.47;;;;;;;10.24;59.50;98009.34;5091458;28;20207;-72
2023/12/23 08:19:50;;;;;;;56.90;24.33;;;;;;;10.24;58.93;98035.88;5092188;28;20187;-72
2023/12/23 08:22:18;;;;;;;53.83;25.30;;;;;;;10.27;59.32;98013.38;5090810;28;20666;-72
2023/12/23 08:24:44;;;;;;;42.00;22.27;;;;;;;10.37;59.12;98008.31;5091910;28;20273;-73
2023/12/23 08:27:13;;;;;;;47.57;22.13;;;;;;;10.31;58.07;98023.31;5091955;28;20185;-73
2023/12/23 08:29:40;;;;;;;46.23;24.10;;;;;;;10.14;58.51;98029.53;5091824;28;20195;-74
2023/12/23 08:32:07;;;;;;;59.87;23.03;;;;;;;10.16;58.64;98033.56;5091214;28;20228;-73
2023/12/23 08:34:34;;;;;;;55.07;27.53;;;;;;;10.25;59.40;98036.72;5091395;28;20195;-73
2023/12/23 08:37:00;;;;;;;41.67;24.43;;;;;;;10.64;59.85;98047.44;5091193;28;20195;-74
2023/12/23 08:39:28;;;;;;;57.73;23.17;;;;;;;11.17;59.43;98047.25;5091796;28;20204;-73
2023/12/23 08:41:55;;;;;;;39.87;19.53;;;;;;;11.65;57.11;98041.56;5091386;28;20189;-73
2023/12/23 08:44:22;;;;;;;56.40;18.77;;;;;;;12.05;54.51;98024.47;5071303;28;20238;-73
2023/12/23 08:46:49;;;;;;;37.57;16.17;;;;;;;12.34;54.27;98038.53;5071135;28;20727;-72
2023/12/23 08:49:15;;;;;;;43.70;14.47;;;;;;;12.56;53.22;98037.53;5090156;28;20197;-73
2023/12/23 08:51:42;;;;;;;33.00;14.70;;;;;;;12.64;51.82;98042.47;5091061;28;20255;-74
2023/12/23 08:54:09;;;;;;;24.03;12.17;;;;;;;12.76;50.58;98037.03;5091365;28;20808;-74
2023/12/23 08:56:37;;;;;;;57.07;15.73;;;;;;;13.15;49.51;98031.44;5091251;28;20193;-74
2023/12/23 08:59:03;;;;;;;41.57;14.93;;;;;;;13.40;47.34;98044.31;5091069;28;20191;-73
2023/12/23 09:01:30;;;;;;;23.23;11.40;;;;;;;13.57;46.49;98032.50;5091007;28;20257;-72
2023/12/23 09:03:57;;;;;;;32.40;14.37;;;;;;;13.90;46.13;98031.50;5090859;28;20736;-72
2023/12/23 09:06:24;;;;;;;38.33;15.93;;;;;;;14.23;46.00;98028.63;5090891;28;20754;-72
2023/12/23 09:08:51;;;;;;;30.17;15.53;;;;;;;14.51;45.40;98029.13;5090835;28;20257;-73
2023/12/23 09:11:18;;;;;;;33.07;16.90;;;;;;;14.75;43.67;98022.31;5089910;28;20728;-73
2023/12/23 09:13:46;;;;;;;36.33;15.67;;;;;;;14.88;42.79;98008.50;5090430;28;20655;-73
2023/12/23 09:16:12;;;;;;;39.83;14.83;;;;;;;15.23;42.29;98035.41;5090379;28;20199;-72
2023/12/23 09:18:39;;;;;;;43.57;17.00;;;;;;;15.46;42.06;98043.03;5090574;28;20192;-73
2023/12/23 09:21:06;;;;;;;23.37;11.57;;;;;;;15.59;40.54;98037.19;5090300;28;20203;-73
2023/12/23 09:23:33;;;;;;;25.37;10.77;;;;;;;15.79;39.68;98039.94;5090739;28;20191;-73
2023/12/23 09:26:00;;;;;;;15.40;11.63;;;;;;;16.02;39.35;98037.81;5090883;28;20694;-72
2023/12/23 09:28:26;;;;;;;24.90;11.33;;;;;;;16.23;38.25;98044.78;5090783;28;20191;-71
2023/12/23 09:30:54;;;;;;;27.37;12.10;;;;;;;16.46;38.06;98028.22;5083344;28;20200;-71
2023/12/23 09:33:21;;;;;;;34.13;13.03;;;;;;;16.73;37.39;98028.72;5073848;28;20227;-73
2023/12/23 09:35:48;;;;;;;24.77;12.03;;;;;;;16.93;37.28;98024.13;5080875;28;20612;-72
2023/12/23 09:38:15;;;;;;;26.00;10.93;;;;;;;17.13;42.15;98023.25;5088588;28;20191;-72
2023/12/23 09:40:42;;;;;;;41.70;14.87;;;;;;;17.10;41.28;98024.63;5071456;28;20204;-72
2023/12/23 09:43:09;;;;;;;25.33;14.07;;;;;;;17.13;40.20;98045.53;5076799;28;20187;-73
2023/12/23 09:45:37;;;;;;;20.60;10.33;;;;;;;17.14;38.05;98073.16;5090422;28;20224;-71
2023/12/23 09:48:06;;;;;;;13.23;8.73;;;;;;;16.88;38.58;98079.66;5091062;28;20195;-72
2023/12/23 09:50:33;;;;;;;18.40;9.10;;;;;;;16.85;38.95;98069.47;5091179;28;20199;-70
2023/12/23 09:53:00;;;;;;;17.90;10.30;;;;;;;16.83;39.44;98079.66;5090337;28;20203;-73
2023/12/23 09:55:28;;;;;;;24.07;10.67;;;;;;;16.79;38.45;98087.47;5090607;28;20199;-73
2023/12/23 09:57:55;;;;;;;47.30;13.03;;;;;;;16.63;39.32;98082.34;5090415;28;20662;-74
2023/12/23 10:00:22;;;;;;;27.07;10.77;;;;;;;16.98;39.60;98096.53;5091109;28;20191;-79
2023/12/23 10:02:49;;;;;;;29.00;10.27;;;;;;;17.15;39.81;98090.88;5090440;28;20207;-74
2023/12/23 10:05:17;;;;;;;24.03;8.77;;;;;;;17.28;39.68;98080.38;5090541;28;20305;-75
2023/12/23 10:07:44;;;;;;;10.97;7.47;;;;;;;17.29;39.92;98087.34;5090256;28;20666;-76
2023/12/23 10:10:12;;;;;;;18.90;5.57;;;;;;;17.13;40.66;98082.28;5090425;28;20625;-76
2023/12/23 10:12:38;;;;;;;6.00;4.03;;;;;;;17.33;41.60;98098.34;5090507;28;20210;-75
2023/12/23 10:15:06;;;;;;;6.47;1.80;;;;;;;17.39;41.16;98118.75;5090714;28;20252;-73
2023/12/23 10:17:33;;;;;;;3.80;1.53;;;;;;;17.24;41.60;98116.91;5089832;28;20239;-73
2023/12/23 10:20:00;;;;;;;55.23;5.23;;;;;;;17.00;42.17;98131.13;5070010;28;20260;-74
2023/12/23 10:22:28;;;;;;;7.03;2.07;;;;;;;16.89;43.21;98138.41;5069783;28;20237;-73
2023/12/23 10:24:56;;;;;;;14.50;2.17;;;;;;;16.70;44.37;98147.25;5092754;28;20219;-73
2023/12/23 10:27:27;;;;;;;10.30;2.10;;;;;;;16.72;45.50;98153.13;5093660;28;20681;-74
2023/12/23 10:29:57;;;;;;;5.10;2.00;;;;;;;16.66;46.00;98156.91;5094095;28;20327;-75
2023/12/23 10:32:25;;;;;;;16.10;3.37;;;;;;;16.53;46.18;98178.88;5094241;28;20364;-75
2023/12/23 10:34:57;;;;;;;3.17;1.97;;;;;;;16.15;47.82;98173.91;5090706;28;20199;-74
2023/12/23 10:37:25;;;;;;;6.67;1.70;;;;;;;16.17;48.47;98201.25;5079714;28;20191;-75
2023/12/23 10:39:58;;;;;;;3.53;1.87;;;;;;;16.00;48.31;98211.38;5091848;28;20219;-75
2023/12/23 10:42:26;;;;;;;6.93;2.43;;;;;;;15.48;49.72;98220.19;5088556;28;20177;-73
2023/12/23 10:44:53;;;;;;;6.63;1.93;;;;;;;15.24;50.64;98250.22;5091584;28;20223;-74
2023/12/23 10:47:20;;;;;;;5.57;1.70;;;;;;;14.91;51.90;98264.63;5093975;28;20253;-75
2023/12/23 10:49:49;;;;;;;6.63;1.60;;;;;;;14.60;53.25;98286.78;5093590;28;20195;-75
2023/12/23 10:52:18;;;;;;;9.57;2.17;;;;;;;14.29;54.31;98284.81;5093154;28;20716;-76
2023/12/23 10:54:45;;;;;;;10.97;2.13;;;;;;;14.19;56.16;98308.72;5092407;28;20682;-73
2023/12/23 10:57:16;;;;;;;3.97;1.27;;;;;;;14.05;57.33;98309.31;5114631;28;20194;-77
2023/12/23 10:59:43;;;;;;;3.70;1.33;;;;;;;13.98;57.98;98320.19;5098198;28;20195;-72
2023/12/23 11:02:14;;;;;;;2.70;1.40;;;;;;;13.89;57.87;98323.50;5091139;28;20200;-74
2023/12/23 11:04:44;;;;;;;4.83;1.83;;;;;;;13.64;58.08;98315.91;5083283;28;20180;-73
2023/12/23 11:07:14;;;;;;;1.93;1.47;;;;;;;13.43;59.37;98342.53;5073589;28;20188;-75
2023/12/23 11:09:42;;;;;;;2.83;1.30;;;;;;;12.94;60.46;98332.59;5077115;28;20643;-74
2023/12/23 11:12:09;;;;;;;1.93;1.83;;;;;;;12.79;61.57;98365.09;5082647;28;20195;-73
2023/12/23 11:14:38;;;;;;;1.37;1.27;;;;;;;12.64;61.33;98383.44;5082539;28;20276;-73
2023/12/23 11:17:22;;;;;;;2.03;1.20;;;;;;;12.35;62.00;98395.06;5082555;28;20264;-74
2023/12/23 11:19:49;;;;;;;1.83;1.20;;;;;;;12.10;63.15;98394.53;5081702;28;20184;-72
2023/12/23 11:22:23;;;;;;;1.67;1.57;;;;;;;12.08;64.20;98388.59;5083810;28;20202;-73
2023/12/23 11:24:50;;;;;;;1.47;1.10;;;;;;;12.09;64.23;98394.75;5080795;28;20202;-75
2023/12/23 11:27:31;;;;;;;1.00;1.00;;;;;;;11.99;64.00;98402.50;5084051;28;20198;-75
2023/12/23 11:30:01;;;;;;;3.50;1.53;;;;;;;11.90;63.48;98420.66;5080359;28;20721;-73
2023/12/23 11:32:34;;;;;;;7.03;1.20;;;;;;;11.82;63.34;98422.84;5074126;28;20258;-73